Time;durP1;ratioP1;P1;durP2;ratioP2;P2;SDS_P1;SDS_P2;PMS_P1;PMS_P2;Temp;Humidity;BMP_temperature;BMP_pressure;BME280_temperature;BME280_humidity;BME280_pressure;Samples;Min_cycle;Max_cycle;Signal;HPM_P1;HPM_P2
2022/11/22 00:00:38;;;;;;;;;;;4.60;99.90;;;;;;5096085;28;19909;-75
2022/11/22 00:03:04;;;;;;;;;;;4.60;99.90;;;;;;5096444;28;19944;-74
2022/11/22 00:05:29;;;;;;;;;;;4.60;99.90;;;;;;5096201;28;19950;-75
2022/11/22 00:07:55;;;;;;;;;;;4.70;99.90;;;;;;5096288;28;20023;-74
2022/11/22 00:10:20;;;;;;;;;;;4.70;99.90;;;;;;5095928;28;19987;-75
2022/11/22 00:12:46;;;;;;;;;;;4.70;99.90;;;;;;5096019;28;19912;-74
2022/11/22 00:15:12;;;;;;;;;;;4.60;99.90;;;;;;5095750;28;19916;-75
2022/11/22 00:17:38;;;;;;;;;;;4.70;99.90;;;;;;5095795;28;19908;-75
2022/11/22 00:20:04;;;;;;;;;;;4.70;99.90;;;;;;5096106;28;19908;-75
2022/11/22 00:22:31;;;;;;;;;;;4.70;99.90;;;;;;5095815;28;19947;-75
2022/11/22 00:24:56;;;;;;;;;;;4.70;99.90;;;;;;5095889;28;19916;-75
2022/11/22 00:27:22;;;;;;;;;;;4.70;99.90;;;;;;5095626;28;19908;-75
2022/11/22 00:29:47;;;;;;;;;;;4.70;99.90;;;;;;5095932;28;19998;-74
2022/11/22 00:32:13;;;;;;;;;;;4.80;99.90;;;;;;5095665;28;19916;-75
2022/11/22 00:34:39;;;;;;;;;;;4.80;99.90;;;;;;5095210;28;20011;-75
2022/11/22 00:37:04;;;;;;;;;;;4.80;99.90;;;;;;5095915;28;19954;-75
2022/11/22 00:39:30;;;;;;;;;;;4.90;99.90;;;;;;5095297;28;20349;-74
2022/11/22 00:41:55;;;;;;;;;;;4.90;99.90;;;;;;5095809;28;19934;-75
2022/11/22 00:44:21;;;;;;;;;;;4.90;99.90;;;;;;5094981;28;19954;-75
2022/11/22 00:46:46;;;;;;;;;;;4.90;99.90;;;;;;5095638;28;20392;-75
2022/11/22 00:49:12;;;;;;;;;;;4.90;99.90;;;;;;5095558;28;19908;-75
2022/11/22 00:51:39;;;;;;;;;;;4.90;99.90;;;;;;5094331;28;20008;-75
2022/11/22 00:54:04;;;;;;;;;;;4.90;99.90;;;;;;5095034;28;19923;-74
2022/11/22 00:56:30;;;;;;;;;;;4.90;99.90;;;;;;5094974;28;19908;-75
2022/11/22 00:58:56;;;;;;;;;;;4.90;99.90;;;;;;5095117;28;19912;-75
2022/11/22 01:01:22;;;;;;;;;;;4.90;99.90;;;;;;5110783;28;19915;-75
2022/11/22 01:03:47;;;;;;;;;;;4.90;99.90;;;;;;5095454;28;20370;-75
2022/11/22 01:06:13;;;;;;;;;;;4.90;99.90;;;;;;5095388;28;19931;-75
2022/11/22 01:08:39;;;;;;;;;;;4.80;99.90;;;;;;5094858;28;19912;-74
2022/11/22 01:11:04;;;;;;;;;;;4.90;99.90;;;;;;5077153;28;20007;-74
2022/11/22 01:13:30;;;;;;;;;;;4.90;99.90;;;;;;5094260;28;19908;-74
2022/11/22 01:16:04;;;;;;;;;;;4.80;99.90;;;;;;5095022;28;19916;-74
2022/11/22 01:18:29;;;;;;;;;;;4.80;99.90;;;;;;5094706;28;19916;-74
2022/11/22 01:20:55;;;;;;;;;;;4.80;99.90;;;;;;5095008;28;19919;-74
2022/11/22 01:23:21;;;;;;;;;;;4.80;99.90;;;;;;5094408;28;20273;-74
2022/11/22 01:25:46;;;;;;;;;;;4.80;99.90;;;;;;5094646;28;19990;-73
2022/11/22 01:28:12;;;;;;;;;;;4.80;99.90;;;;;;5094422;28;19908;-74
2022/11/22 01:30:37;;;;;;;;;;;4.90;99.90;;;;;;5094380;28;19908;-74
2022/11/22 01:33:03;;;;;;;;;;;4.90;99.90;;;;;;5094689;28;20357;-74
2022/11/22 01:35:29;;;;;;;;;;;4.90;99.90;;;;;;5094005;28;19912;-74
2022/11/22 01:37:54;;;;;;;;;;;4.90;99.90;;;;;;5094793;28;19912;-74
2022/11/22 01:40:20;;;;;;;;;;;4.90;99.90;;;;;;5094295;28;19908;-74
2022/11/22 01:42:50;;;;;;;;;;;4.90;99.90;;;;;;5094808;28;20049;-74
2022/11/22 01:45:31;;;;;;;;;;;4.90;99.90;;;;;;5094737;28;20003;-73
2022/11/22 01:48:03;;;;;;;;;;;4.90;99.90;;;;;;5076589;28;20361;-72
2022/11/22 01:50:31;;;;;;;;;;;4.90;99.90;;;;;;5094234;28;19908;-73
2022/11/22 01:52:58;;;;;;;;;;;4.90;99.90;;;;;;5110864;28;20273;-73
2022/11/22 01:55:24;;;;;;;;;;;4.90;99.90;;;;;;5093839;28;20068;-72
2022/11/22 01:57:50;;;;;;;;;;;4.80;99.90;;;;;;5094985;28;19958;-73
2022/11/22 02:00:16;;;;;;;;;;;4.70;99.90;;;;;;5076313;28;19912;-73
2022/11/22 02:02:43;;;;;;;;;;;4.70;99.90;;;;;;5094092;28;19908;-72
2022/11/22 02:05:10;;;;;;;;;;;4.70;99.90;;;;;;5094468;28;19908;-73
2022/11/22 02:07:43;;;;;;;;;;;4.60;99.90;;;;;;5093782;28;19912;-73
2022/11/22 02:10:08;;;;;;;;;;;4.50;99.90;;;;;;5094518;28;19908;-73
2022/11/22 02:12:35;;;;;;;;;;;4.50;99.90;;;;;;5094053;28;19954;-73
2022/11/22 02:15:01;;;;;;;;;;;4.50;99.90;;;;;;5094111;28;19920;-73
2022/11/22 02:17:27;;;;;;;;;;;4.40;99.90;;;;;;5093510;28;19922;-73
2022/11/22 02:19:53;;;;;;;;;;;4.40;99.90;;;;;;5094385;28;20003;-74
2022/11/22 02:22:37;;;;;;;;;;;4.40;99.90;;;;;;5094167;28;20280;-74
2022/11/22 02:25:05;;;;;;;;;;;4.40;99.90;;;;;;5094260;28;19936;-74
2022/11/22 02:27:31;;;;;;;;;;;4.40;99.90;;;;;;5093987;28;19954;-74
2022/11/22 02:29:56;;;;;;;;;;;4.40;99.90;;;;;;5093718;28;19908;-74
2022/11/22 02:32:22;;;;;;;;;;;4.40;99.90;;;;;;5093577;28;19908;-74
2022/11/22 02:34:49;;;;;;;;;;;4.40;99.90;;;;;;5093560;28;19919;-74
2022/11/22 02:37:24;;;;;;;;;;;4.40;99.90;;;;;;5093610;28;19999;-74
2022/11/22 02:39:54;;;;;;;;;;;4.40;99.90;;;;;;5093937;28;19908;-74
2022/11/22 02:42:20;;;;;;;;;;;4.50;99.90;;;;;;5075651;28;19908;-74
2022/11/22 02:44:46;;;;;;;;;;;4.60;99.90;;;;;;5093592;28;20383;-74
2022/11/22 02:47:11;;;;;;;;;;;4.70;99.90;;;;;;5075378;28;19908;-74
2022/11/22 02:49:37;;;;;;;;;;;4.70;99.90;;;;;;5093613;28;20384;-74
2022/11/22 02:52:03;;;;;;;;;;;4.80;99.90;;;;;;5075356;28;19919;-74
2022/11/22 02:54:28;;;;;;;;;;;4.80;99.90;;;;;;5092964;28;19920;-74
2022/11/22 02:56:54;;;;;;;;;;;4.90;99.90;;;;;;5093457;28;19908;-74
2022/11/22 02:59:19;;;;;;;;;;;4.90;99.90;;;;;;5093289;28;19991;-74
2022/11/22 03:01:46;;;;;;;;;;;5.00;99.90;;;;;;5093099;28;20365;-74
2022/11/22 03:04:23;;;;;;;;;;;5.00;99.90;;;;;;5093273;28;19914;-74
2022/11/22 03:06:49;;;;;;;;;;;5.10;99.90;;;;;;5093479;28;19915;-74
2022/11/22 03:09:15;;;;;;;;;;;5.20;99.90;;;;;;5093454;28;19985;-74
2022/11/22 03:11:40;;;;;;;;;;;5.00;99.90;;;;;;5093001;28;20361;-74
2022/11/22 03:14:06;;;;;;;;;;;5.10;99.90;;;;;;5074625;28;19965;-74
2022/11/22 03:16:32;;;;;;;;;;;5.10;99.90;;;;;;5092848;28;19912;-74
2022/11/22 03:18:57;;;;;;;;;;;5.20;99.90;;;;;;5093302;28;19955;-74
2022/11/22 03:21:23;;;;;;;;;;;5.20;99.90;;;;;;5075218;28;19946;-74
2022/11/22 03:23:48;;;;;;;;;;;5.20;99.90;;;;;;5092802;28;19908;-74
2022/11/22 03:26:14;;;;;;;;;;;5.30;99.90;;;;;;5093064;28;20063;-74
2022/11/22 03:28:39;;;;;;;;;;;5.30;99.90;;;;;;5093159;28;19908;-74
2022/11/22 03:31:05;;;;;;;;;;;5.30;99.90;;;;;;5093366;28;20352;-74
2022/11/22 03:33:31;;;;;;;;;;;5.30;99.90;;;;;;5092734;28;20007;-74
2022/11/22 03:35:57;;;;;;;;;;;5.40;99.90;;;;;;5092948;28;20387;-74
2022/11/22 03:38:22;;;;;;;;;;;5.30;99.90;;;;;;5093207;28;19908;-74
2022/11/22 03:40:48;;;;;;;;;;;5.30;99.90;;;;;;5092702;28;19908;-74
2022/11/22 03:43:13;;;;;;;;;;;5.30;99.90;;;;;;5093337;28;19915;-74
2022/11/22 03:45:43;;;;;;;;;;;5.30;99.90;;;;;;5092696;28;20365;-74
2022/11/22 03:48:08;;;;;;;;;;;5.30;99.90;;;;;;5092710;28;19908;-74
2022/11/22 03:50:34;;;;;;;;;;;5.40;99.90;;;;;;5092297;28;19916;-74
2022/11/22 03:52:59;;;;;;;;;;;5.30;99.90;;;;;;5093303;28;20003;-74
2022/11/22 03:55:25;;;;;;;;;;;5.30;99.90;;;;;;5092430;28;20372;-75
2022/11/22 03:57:50;;;;;;;;;;;5.30;99.90;;;;;;5093102;28;19908;-74
2022/11/22 04:00:16;;;;;;;;;;;5.30;99.90;;;;;;5108830;28;19969;-74
2022/11/22 04:02:42;;;;;;;;;;;5.30;99.90;;;;;;5092509;28;19908;-74
2022/11/22 04:05:07;;;;;;;;;;;5.20;99.90;;;;;;5092823;28;19915;-74
2022/11/22 04:07:33;;;;;;;;;;;5.30;99.90;;;;;;5092377;28;20007;-74
2022/11/22 04:09:58;;;;;;;;;;;5.20;99.90;;;;;;5092793;28;19987;-74
2022/11/22 04:12:24;;;;;;;;;;;5.30;99.90;;;;;;5092650;28;19908;-74
2022/11/22 04:15:08;;;;;;;;;;;5.20;99.90;;;;;;5092087;28;19919;-75
2022/11/22 04:17:42;;;;;;;;;;;5.20;99.90;;;;;;5092238;28;20361;-74
2022/11/22 04:23:01;;;;;;;;;;;5.10;99.90;;;;;;5092897;28;19981;-74
2022/11/22 04:25:27;;;;;;;;;;;5.00;99.90;;;;;;5093358;28;19928;-74
2022/11/22 04:27:53;;;;;;;;;;;5.00;99.90;;;;;;5077907;28;19908;-74
2022/11/22 04:30:19;;;;;;;;;;;5.00;99.90;;;;;;5096487;28;20273;-74
2022/11/22 04:32:44;;;;;;;;;;;5.00;99.90;;;;;;5095766;28;19908;-74
2022/11/22 04:35:11;;;;;;;;;;;4.90;99.90;;;;;;5096046;28;19966;-74
2022/11/22 04:37:37;;;;;;;;;;;4.90;99.90;;;;;;5095772;28;19973;-74
2022/11/22 04:40:03;;;;;;;;;;;4.90;99.90;;;;;;5095951;28;20373;-74
2022/11/22 04:45:12;;;;;;;;;;;4.90;99.90;;;;;;5096178;28;19953;-74
2022/11/22 04:53:06;;;;;;;;;;;4.90;99.90;;;;;;5095759;28;19918;-74
2022/11/22 04:55:31;;;;;;;;;;;5.00;99.90;;;;;;5095588;28;19920;-74
2022/11/22 04:57:57;;;;;;;;;;;5.00;99.90;;;;;;5096152;28;19908;-73
2022/11/22 05:00:23;;;;;;;;;;;5.00;99.90;;;;;;5095368;28;20330;-73
2022/11/22 05:02:48;;;;;;;;;;;5.00;99.90;;;;;;5095310;28;19908;-73
2022/11/22 05:05:14;;;;;;;;;;;5.00;99.90;;;;;;5096035;28;20277;-73
2022/11/22 05:07:39;;;;;;;;;;;5.10;99.90;;;;;;5095255;28;19908;-73
2022/11/22 05:10:05;;;;;;;;;;;5.00;99.90;;;;;;5095165;28;19981;-73
2022/11/22 05:12:31;;;;;;;;;;;5.10;99.90;;;;;;5095336;28;19916;-74
2022/11/22 05:14:56;;;;;;;;;;;5.10;99.90;;;;;;5095309;28;19912;-73
2022/11/22 05:17:22;;;;;;;;;;;5.20;99.90;;;;;;5095602;28;19916;-74
2022/11/22 05:19:47;;;;;;;;;;;5.20;99.90;;;;;;5094990;28;19930;-74
2022/11/22 05:22:13;;;;;;;;;;;5.20;99.90;;;;;;5094954;28;19908;-74
2022/11/22 05:24:38;;;;;;;;;;;5.20;99.90;;;;;;5094675;28;20280;-74
2022/11/22 05:27:04;;;;;;;;;;;5.20;99.90;;;;;;5095141;28;19908;-74
2022/11/22 05:29:30;;;;;;;;;;;5.20;99.90;;;;;;5095088;28;19912;-73
2022/11/22 05:31:55;;;;;;;;;;;5.20;99.90;;;;;;5094459;28;19912;-73
2022/11/22 05:34:21;;;;;;;;;;;5.20;99.90;;;;;;5094870;28;19912;-73
2022/11/22 05:36:46;;;;;;;;;;;5.20;99.90;;;;;;5094230;28;19912;-73
2022/11/22 05:39:12;;;;;;;;;;;5.20;99.90;;;;;;5095092;28;19908;-73
2022/11/22 05:41:37;;;;;;;;;;;5.10;99.90;;;;;;5094626;28;20276;-74
2022/11/22 05:44:03;;;;;;;;;;;5.10;99.90;;;;;;5094753;28;19908;-74
2022/11/22 05:46:29;;;;;;;;;;;5.10;99.90;;;;;;5094619;28;19908;-74
2022/11/22 05:48:55;;;;;;;;;;;5.10;99.90;;;;;;5094321;28;19914;-74
2022/11/22 05:51:22;;;;;;;;;;;5.00;99.90;;;;;;5094775;28;19932;-74
2022/11/22 05:53:48;;;;;;;;;;;5.00;99.90;;;;;;5093785;28;19912;-73
2022/11/22 05:56:14;;;;;;;;;;;4.90;99.90;;;;;;5094441;28;20285;-74
2022/11/22 05:58:40;;;;;;;;;;;4.90;99.90;;;;;;5094260;28;19955;-74
2022/11/22 06:01:07;;;;;;;;;;;4.80;99.90;;;;;;5094447;28;20336;-74
2022/11/22 06:03:33;;;;;;;;;;;4.80;99.90;;;;;;5094767;28;19953;-74
2022/11/22 06:05:59;;;;;;;;;;;4.80;99.90;;;;;;5094327;28;20023;-74
2022/11/22 06:08:26;;;;;;;;;;;4.70;99.90;;;;;;5094117;28;20349;-74
2022/11/22 06:10:52;;;;;;;;;;;4.60;99.90;;;;;;5093433;28;20353;-74
2022/11/22 06:13:18;;;;;;;;;;;4.60;99.90;;;;;;5094227;28;19915;-74
2022/11/22 06:15:43;;;;;;;;;;;4.50;99.90;;;;;;5093697;28;19912;-74
2022/11/22 06:18:09;;;;;;;;;;;4.50;99.90;;;;;;5094249;28;19912;-73
2022/11/22 06:20:34;;;;;;;;;;;4.40;99.90;;;;;;5075794;28;19908;-74
2022/11/22 06:23:00;;;;;;;;;;;4.40;99.90;;;;;;5093918;28;19998;-74
2022/11/22 06:25:26;;;;;;;;;;;4.30;99.90;;;;;;5094091;28;19920;-74
2022/11/22 06:27:51;;;;;;;;;;;4.30;99.90;;;;;;5093479;28;19908;-74
2022/11/22 06:30:17;;;;;;;;;;;4.20;99.90;;;;;;5093919;28;19914;-74
2022/11/22 06:32:42;;;;;;;;;;;4.20;99.90;;;;;;5093509;28;20345;-74
2022/11/22 06:35:08;;;;;;;;;;;4.20;99.90;;;;;;5075690;28;19942;-74
2022/11/22 06:37:34;;;;;;;;;;;4.10;99.90;;;;;;5093794;28;19912;-74
2022/11/22 06:39:59;;;;;;;;;;;4.00;99.90;;;;;;5093458;28;19908;-74
2022/11/22 06:42:25;;;;;;;;;;;4.00;99.90;;;;;;5093574;28;19948;-73
2022/11/22 06:44:50;;;;;;;;;;;4.00;99.90;;;;;;5093402;28;19908;-74
2022/11/22 06:47:16;;;;;;;;;;;3.90;99.90;;;;;;5093458;28;19915;-74
2022/11/22 06:49:43;;;;;;;;;;;3.90;99.90;;;;;;5092354;28;20369;-72
2022/11/22 06:52:08;;;;;;;;;;;3.90;99.90;;;;;;5093569;28;20345;-73
2022/11/22 06:54:34;;;;;;;;;;;3.90;99.90;;;;;;5093200;28;19920;-73
2022/11/22 06:56:59;;;;;;;;;;;3.80;99.90;;;;;;5093045;28;19991;-73
2022/11/22 06:59:25;;;;;;;;;;;3.70;99.90;;;;;;5093038;28;19919;-73
2022/11/22 07:01:51;;;;;;;;;;;3.70;99.90;;;;;;5093056;28;19908;-72
2022/11/22 07:04:16;;;;;;;;;;;3.70;99.90;;;;;;5093151;28;20300;-72
2022/11/22 07:06:43;;;;;;;;;;;3.70;99.90;;;;;;5092686;28;20369;-73
2022/11/22 07:09:09;;;;;;;;;;;3.70;99.90;;;;;;5093090;28;20280;-73
2022/11/22 07:11:35;;;;;;;;;;;3.80;99.90;;;;;;5093036;28;20389;-73
2022/11/22 07:14:01;;;;;;;;;;;3.80;99.90;;;;;;5092400;28;19951;-73
2022/11/22 07:16:26;;;;;;;;;;;3.90;99.90;;;;;;5093291;28;19942;-73
2022/11/22 07:18:52;;;;;;;;;;;3.90;99.90;;;;;;5092715;28;19908;-73
2022/11/22 07:21:22;;;;;;;;;;;4.00;99.90;;;;;;5093154;28;19908;-73
2022/11/22 07:23:49;;;;;;;;;;;4.10;99.90;;;;;;5092251;28;20363;-73
2022/11/22 07:26:15;;;;;;;;;;;4.20;99.90;;;;;;5093325;28;20026;-73
2022/11/22 07:28:41;;;;;;;;;;;4.20;99.90;;;;;;5092840;28;19960;-73
2022/11/22 07:31:08;;;;;;;;;;;4.30;99.90;;;;;;5092766;28;19939;-73
2022/11/22 07:33:33;;;;;;;;;;;4.30;99.90;;;;;;5092602;28;19908;-73
2022/11/22 07:36:18;;;;;;;;;;;4.40;99.90;;;;;;5092538;28;19912;-74
2022/11/22 07:38:44;;;;;;;;;;;4.40;99.90;;;;;;5092360;28;19908;-73
2022/11/22 07:41:10;;;;;;;;;;;4.40;99.90;;;;;;5092567;28;20350;-73
2022/11/22 07:43:36;;;;;;;;;;;4.40;99.90;;;;;;5093020;28;19965;-74
2022/11/22 07:46:03;;;;;;;;;;;4.40;99.90;;;;;;5092329;28;19904;-74
2022/11/22 07:48:28;;;;;;;;;;;4.40;99.90;;;;;;5092965;28;19999;-73
2022/11/22 07:50:54;;;;;;;;;;;4.40;99.90;;;;;;5092417;28;19973;-73
2022/11/22 07:53:19;;;;;;;;;;;4.50;99.90;;;;;;5092663;28;19908;-73
2022/11/22 07:55:45;;;;;;;;;;;4.50;99.90;;;;;;5074197;28;20120;-73
2022/11/22 07:58:11;;;;;;;;;;;4.60;99.90;;;;;;5092859;28;19908;-73
2022/11/22 08:00:36;;;;;;;;;;;4.50;99.90;;;;;;5095359;28;19959;-73
2022/11/22 08:03:02;;;;;;;;;;;4.50;99.90;;;;;;5096180;28;20489;-73
2022/11/22 08:05:27;;;;;;;;;;;4.50;99.90;;;;;;5096815;28;20007;-73
2022/11/22 08:07:53;;;;;;;;;;;4.50;99.90;;;;;;5096196;28;19977;-73
2022/11/22 08:10:19;;;;;;;;;;;4.40;99.90;;;;;;5096934;28;19908;-73
2022/11/22 08:12:45;;;;;;;;;;;4.30;99.90;;;;;;5096048;28;20369;-73
2022/11/22 08:15:12;;;;;;;;;;;4.40;99.90;;;;;;5096517;28;19912;-74
2022/11/22 08:17:38;;;;;;;;;;;4.30;99.90;;;;;;5096220;28;19912;-73
2022/11/22 08:20:05;;;;;;;;;;;4.30;99.90;;;;;;5096069;28;19904;-74
2022/11/22 08:22:30;;;;;;;;;;;4.30;99.90;;;;;;5096251;28;19961;-74
2022/11/22 08:24:56;;;;;;;;;;;4.20;99.90;;;;;;5095692;28;19912;-74
2022/11/22 08:27:22;;;;;;;;;;;4.10;99.90;;;;;;5096449;28;19947;-74
2022/11/22 08:29:48;;;;;;;;;;;4.10;99.90;;;;;;5095857;28;20315;-74
2022/11/22 08:32:13;;;;;;;;;;;4.10;99.90;;;;;;5096340;28;19953;-74
2022/11/22 08:34:39;;;;;;;;;;;4.10;99.90;;;;;;5095982;28;20339;-74
2022/11/22 08:37:04;;;;;;;;;;;4.10;99.90;;;;;;5095796;28;19908;-74
2022/11/22 08:39:30;;;;;;;;;;;4.00;99.90;;;;;;5096215;28;20007;-74
2022/11/22 08:41:55;;;;;;;;;;;4.00;99.90;;;;;;5095726;28;19912;-74
2022/11/22 08:44:21;;;;;;;;;;;3.90;99.90;;;;;;5077878;28;19915;-74
2022/11/22 08:46:46;;;;;;;;;;;3.90;99.90;;;;;;5095643;28;19908;-74
2022/11/22 08:49:12;;;;;;;;;;;4.00;99.90;;;;;;5095628;28;20258;-74
2022/11/22 08:51:43;;;;;;;;;;;4.00;99.90;;;;;;5095872;28;19908;-75
2022/11/22 08:54:12;;;;;;;;;;;4.10;99.90;;;;;;5095314;28;19973;-75
2022/11/22 08:56:38;;;;;;;;;;;4.20;99.90;;;;;;5095689;28;20372;-74
2022/11/22 08:59:03;;;;;;;;;;;4.30;99.90;;;;;;5094926;28;19908;-75
2022/11/22 09:01:29;;;;;;;;;;;4.30;99.90;;;;;;5094583;28;20425;-74
2022/11/22 09:03:55;;;;;;;;;;;4.30;99.90;;;;;;5095016;28;20289;-74
2022/11/22 09:06:20;;;;;;;;;;;4.30;99.90;;;;;;5095342;28;19915;-74
2022/11/22 09:08:46;;;;;;;;;;;4.40;99.90;;;;;;5077088;28;19918;-74
2022/11/22 09:11:16;;;;;;;;;;;4.30;99.90;;;;;;5094424;28;20372;-75
2022/11/22 09:13:42;;;;;;;;;;;4.40;99.90;;;;;;5095605;28;19908;-74
2022/11/22 09:16:09;;;;;;;;;;;4.50;99.90;;;;;;5094667;28;19915;-74
2022/11/22 09:18:34;;;;;;;;;;;4.50;99.90;;;;;;5095297;28;19917;-74
2022/11/22 09:21:01;;;;;;;;;;;4.50;99.90;;;;;;5094732;28;19912;-75
2022/11/22 09:23:28;;;;;;;;;;;4.60;99.90;;;;;;5094533;28;19946;-74
2022/11/22 09:25:57;;;;;;;;;;;4.50;99.90;;;;;;5076514;28;20403;-74
2022/11/22 09:28:23;;;;;;;;;;;4.60;99.90;;;;;;5095054;28;19908;-74
2022/11/22 09:30:48;;;;;;;;;;;4.70;99.90;;;;;;5094860;28;20261;-74
2022/11/22 09:33:14;;;;;;;;;;;4.70;99.90;;;;;;5095140;28;19961;-74
2022/11/22 09:35:39;;;;;;;;;;;4.70;99.90;;;;;;5094783;28;19912;-74
2022/11/22 09:38:07;;;;;;;;;;;4.70;99.90;;;;;;5094481;28;19912;-74
2022/11/22 09:40:33;;;;;;;;;;;4.70;99.90;;;;;;5095396;28;19979;-74
2022/11/22 09:43:07;;;;;;;;;;;4.80;99.90;;;;;;5094600;28;19931;-75
2022/11/22 09:45:37;;;;;;;;;;;4.80;99.90;;;;;;5095258;28;19954;-74
2022/11/22 09:48:29;;;;;;;;;;;4.90;99.90;;;;;;5076104;28;19912;-74
2022/11/22 09:50:57;;;;;;;;;;;4.90;99.90;;;;;;5092075;28;19930;-74
2022/11/22 09:53:53;;;;;;;;;;;4.90;99.90;;;;;;5094168;28;19915;-74
2022/11/22 09:56:20;;;;;;;;;;;5.00;99.90;;;;;;5085075;28;19920;-74
2022/11/22 09:59:06;;;;;;;;;;;5.10;99.90;;;;;;5094125;28;20296;-74
2022/11/22 10:01:37;;;;;;;;;;;5.10;99.90;;;;;;5093952;28;19908;-75
2022/11/22 10:04:03;;;;;;;;;;;5.10;99.90;;;;;;5094098;28;19955;-74
2022/11/22 10:06:32;;;;;;;;;;;5.10;99.90;;;;;;5076223;28;19999;-75
2022/11/22 10:09:25;;;;;;;;;;;5.20;99.90;;;;;;5094001;28;19955;-74
2022/11/22 10:12:00;;;;;;;;;;;5.20;99.90;;;;;;5091843;28;19909;-74
2022/11/22 10:14:36;;;;;;;;;;;5.20;99.90;;;;;;5109557;28;19916;-73
2022/11/22 10:17:17;;;;;;;;;;;5.30;99.90;;;;;;5093931;28;19961;-74
2022/11/22 10:19:57;;;;;;;;;;;5.30;99.90;;;;;;5093953;28;19908;-74
2022/11/22 10:22:24;;;;;;;;;;;5.30;99.90;;;;;;5093738;28;19911;-73
2022/11/22 10:24:50;;;;;;;;;;;5.40;99.90;;;;;;5093233;28;19960;-73
2022/11/22 10:27:15;;;;;;;;;;;5.40;99.90;;;;;;5109354;28;19916;-73
2022/11/22 10:29:53;;;;;;;;;;;5.50;99.90;;;;;;5093881;28;20296;-73
2022/11/22 10:32:27;;;;;;;;;;;5.50;99.90;;;;;;5094011;28;19915;-73
2022/11/22 10:34:53;;;;;;;;;;;5.60;99.90;;;;;;5093268;28;20349;-73
2022/11/22 10:37:24;;;;;;;;;;;5.60;99.90;;;;;;5075173;28;19908;-73
2022/11/22 10:40:13;;;;;;;;;;;5.60;99.90;;;;;;5093446;28;20381;-73
2022/11/22 10:42:54;;;;;;;;;;;5.60;99.90;;;;;;5093817;28;20361;-73
2022/11/22 10:45:31;;;;;;;;;;;5.70;99.90;;;;;;5093465;28;19915;-73
2022/11/22 10:47:57;;;;;;;;;;;5.70;99.90;;;;;;5092982;28;20284;-73
2022/11/22 10:50:29;;;;;;;;;;;5.80;99.90;;;;;;5093381;28;19915;-74
2022/11/22 10:52:59;;;;;;;;;;;5.70;99.90;;;;;;5093343;28;19912;-73
2022/11/22 10:55:43;;;;;;;;;;;5.80;99.90;;;;;;5093123;28;19920;-73
2022/11/22 10:58:15;;;;;;;;;;;5.80;99.90;;;;;;5092973;28;19908;-73
2022/11/22 11:00:43;;;;;;;;;;;5.80;99.90;;;;;;5093659;28;20361;-74
2022/11/22 11:03:26;;;;;;;;;;;5.80;99.90;;;;;;5092454;28;19915;-74
2022/11/22 11:05:54;;;;;;;;;;;5.80;99.90;;;;;;5093514;28;19908;-73
2022/11/22 11:08:26;;;;;;;;;;;5.80;99.90;;;;;;5092441;28;20353;-73
2022/11/22 11:10:52;;;;;;;;;;;5.90;99.90;;;;;;5092847;28;19961;-74
2022/11/22 11:13:22;;;;;;;;;;;5.80;99.90;;;;;;5092692;28;19931;-74
2022/11/22 11:15:53;;;;;;;;;;;5.90;99.90;;;;;;5092772;28;20418;-74
2022/11/22 11:18:38;;;;;;;;;;;5.90;99.90;;;;;;5092778;28;19912;-74
2022/11/22 11:21:05;;;;;;;;;;;6.00;99.90;;;;;;5092137;28;20345;-74
2022/11/22 11:23:31;;;;;;;;;;;6.10;99.90;;;;;;5092753;28;19908;-74
2022/11/22 11:26:12;;;;;;;;;;;6.20;99.90;;;;;;5092371;28;19908;-74
2022/11/22 11:28:38;;;;;;;;;;;6.20;99.90;;;;;;5092759;28;20363;-74
2022/11/22 11:31:07;;;;;;;;;;;6.20;99.90;;;;;;5092794;28;19909;-74
2022/11/22 11:33:36;;;;;;;;;;;6.20;99.90;;;;;;5092774;28;19914;-74
2022/11/22 11:36:05;;;;;;;;;;;6.20;99.90;;;;;;5095494;28;19916;-74
2022/11/22 11:38:31;;;;;;;;;;;6.20;99.90;;;;;;5078647;28;20373;-74
2022/11/22 11:40:57;;;;;;;;;;;6.30;99.90;;;;;;5096378;28;19950;-74
2022/11/22 11:43:23;;;;;;;;;;;6.30;99.90;;;;;;5096834;28;20398;-74
2022/11/22 11:45:49;;;;;;;;;;;6.30;99.90;;;;;;5096798;28;19908;-74
2022/11/22 11:48:42;;;;;;;;;;;6.30;99.90;;;;;;5095867;28;19930;-75
2022/11/22 11:51:13;;;;;;;;;;;6.20;99.90;;;;;;5094116;28;19909;-75
2022/11/22 11:53:40;;;;;;;;;;;6.30;99.90;;;;;;5096131;28;19927;-74
2022/11/22 11:56:24;;;;;;;;;;;6.30;99.90;;;;;;5077565;28;20452;-74
2022/11/22 11:58:52;;;;;;;;;;;6.30;99.90;;;;;;5096675;28;19908;-74
2022/11/22 12:01:19;;;;;;;;;;;6.30;99.90;;;;;;5095898;28;19908;-75
2022/11/22 12:03:58;;;;;;;;;;;6.20;99.90;;;;;;5096461;28;19952;-75
2022/11/22 12:06:31;;;;;;;;;;;6.20;99.90;;;;;;5096011;28;19947;-75
2022/11/22 12:08:58;;;;;;;;;;;6.20;99.90;;;;;;5095808;28;19908;-75
2022/11/22 12:11:33;;;;;;;;;;;6.20;99.90;;;;;;5095966;28;20445;-75
2022/11/22 12:14:02;;;;;;;;;;;6.20;99.90;;;;;;5095520;28;20298;-75
2022/11/22 12:16:30;;;;;;;;;;;6.20;99.90;;;;;;5096075;28;19908;-75
2022/11/22 12:19:01;;;;;;;;;;;6.10;99.90;;;;;;5095984;28;20002;-75
2022/11/22 12:21:45;;;;;;;;;;;6.00;99.90;;;;;;5095726;28;19946;-75
2022/11/22 12:24:11;;;;;;;;;;;5.90;99.90;;;;;;5095432;28;20361;-75
2022/11/22 12:26:37;;;;;;;;;;;6.00;99.90;;;;;;5096045;28;20003;-75
2022/11/22 12:29:03;;;;;;;;;;;6.00;99.90;;;;;;5077379;28;19915;-75
2022/11/22 12:31:31;;;;;;;;;;;6.00;99.90;;;;;;5096014;28;19916;-75
2022/11/22 12:34:01;;;;;;;;;;;6.00;99.90;;;;;;5095356;28;19911;-75
2022/11/22 12:36:32;;;;;;;;;;;6.10;99.90;;;;;;5111310;28;19912;-75
2022/11/22 12:39:00;;;;;;;;;;;6.00;99.90;;;;;;5095487;28;19909;-75
2022/11/22 12:41:26;;;;;;;;;;;6.10;99.90;;;;;;5095728;28;19951;-74
2022/11/22 12:43:55;;;;;;;;;;;6.20;99.90;;;;;;5095425;28;19908;-75
2022/11/22 12:46:29;;;;;;;;;;;6.20;99.90;;;;;;5094169;28;19916;-75
2022/11/22 12:48:56;;;;;;;;;;;6.20;99.90;;;;;;5095302;28;20003;-75
2022/11/22 12:51:22;;;;;;;;;;;6.30;99.90;;;;;;5095425;28;20357;-75
2022/11/22 12:53:48;;;;;;;;;;;6.20;99.90;;;;;;5095220;28;19909;-75
2022/11/22 12:56:19;;;;;;;;;;;6.30;99.90;;;;;;5095376;28;19920;-75
2022/11/22 12:59:03;;;;;;;;;;;6.30;99.90;;;;;;5094324;28;21390;-75
2022/11/22 13:01:33;;;;;;;;;;;6.30;99.90;;;;;;5095290;28;19950;-75
2022/11/22 13:04:19;;;;;;;;;;;6.30;99.90;;;;;;5094479;28;20380;-74
2022/11/22 13:06:44;;;;;;;;;;;6.30;99.90;;;;;;5073272;28;19962;-75
2022/11/22 13:09:17;;;;;;;;;;;6.30;99.90;;;;;;5076655;28;19908;-75
2022/11/22 13:12:01;;;;;;;;;;;6.30;99.90;;;;;;5094830;28;19908;-75
2022/11/22 13:14:27;;;;;;;;;;;6.30;99.90;;;;;;5076792;28;20337;-75
2022/11/22 13:16:52;;;;;;;;;;;6.40;99.90;;;;;;5095116;28;19947;-75
2022/11/22 13:19:20;;;;;;;;;;;6.40;99.90;;;;;;5094971;28;19908;-75
2022/11/22 13:22:04;;;;;;;;;;;6.40;99.90;;;;;;5094948;28;19958;-75
2022/11/22 13:24:29;;;;;;;;;;;6.30;99.90;;;;;;5095050;28;19909;-75
2022/11/22 13:27:01;;;;;;;;;;;6.30;99.90;;;;;;5076775;28;20400;-75
2022/11/22 13:29:27;;;;;;;;;;;6.40;99.90;;;;;;5095177;28;19913;-75
2022/11/22 13:32:11;;;;;;;;;;;6.40;99.90;;;;;;5094929;28;19908;-76
2022/11/22 13:34:39;;;;;;;;;;;6.40;99.90;;;;;;5094785;28;19916;-76
2022/11/22 13:37:15;;;;;;;;;;;6.40;99.90;;;;;;5094128;28;19912;-76
2022/11/22 13:39:42;;;;;;;;;;;6.40;99.90;;;;;;5094561;28;19908;-76
2022/11/22 13:42:10;;;;;;;;;;;6.50;99.90;;;;;;5093985;28;20334;-76
2022/11/22 13:44:47;;;;;;;;;;;6.50;99.90;;;;;;5094476;28;19912;-76
2022/11/22 13:47:13;;;;;;;;;;;6.50;99.90;;;;;;5094176;28;19914;-76
2022/11/22 13:49:44;;;;;;;;;;;6.60;99.90;;;;;;5094382;28;19908;-76
2022/11/22 13:52:09;;;;;;;;;;;6.50;99.90;;;;;;5093707;28;19912;-75
2022/11/22 13:54:35;;;;;;;;;;;6.60;99.90;;;;;;5094219;28;19920;-74
2022/11/22 13:57:03;;;;;;;;;;;6.60;99.90;;;;;;5093490;28;19995;-74
2022/11/22 13:59:28;;;;;;;;;;;6.60;99.90;;;;;;5094170;28;19908;-75
2022/11/22 14:01:55;;;;;;;;;;;6.70;99.90;;;;;;5094218;28;19961;-74
2022/11/22 14:04:25;;;;;;;;;;;6.70;99.90;;;;;;5093397;28;20002;-75
2022/11/22 14:06:52;;;;;;;;;;;6.70;99.90;;;;;;5093937;28;20238;-74
2022/11/22 14:09:36;;;;;;;;;;;6.70;99.90;;;;;;5093320;28;19906;-74
2022/11/22 14:12:11;;;;;;;;;;;6.70;99.90;;;;;;5093391;28;19908;-74
2022/11/22 14:14:46;;;;;;;;;;;6.80;99.90;;;;;;5093748;28;19916;-75
2022/11/22 14:17:27;;;;;;;;;;;6.80;99.90;;;;;;5093866;28;19919;-74
2022/11/22 14:19:52;;;;;;;;;;;6.80;99.90;;;;;;5093820;28;19908;-74
2022/11/22 14:22:18;;;;;;;;;;;6.80;99.90;;;;;;5093035;28;19904;-74
2022/11/22 14:25:07;;;;;;;;;;;6.90;99.90;;;;;;5093756;28;19952;-74
2022/11/22 14:27:41;;;;;;;;;;;6.90;99.90;;;;;;5087837;28;19931;-74
2022/11/22 14:30:12;;;;;;;;;;;6.90;99.90;;;;;;5092978;28;20380;-75
2022/11/22 14:32:54;;;;;;;;;;;7.00;99.90;;;;;;5093762;28;19908;-74
2022/11/22 14:35:30;;;;;;;;;;;7.00;99.90;;;;;;5092800;28;19961;-74
2022/11/22 14:37:57;;;;;;;;;;;7.00;99.90;;;;;;5093230;28;20498;-75
2022/11/22 14:40:29;;;;;;;;;;;7.00;99.90;;;;;;5093012;28;19998;-74
2022/11/22 14:42:58;;;;;;;;;;;7.00;99.90;;;;;;5093284;28;19908;-75
2022/11/22 14:45:34;;;;;;;;;;;7.00;99.90;;;;;;5093353;28;19908;-75
2022/11/22 14:48:02;;;;;;;;;;;7.10;99.90;;;;;;5093006;28;19915;-74